sensor_id;sensor_type;location;lat;lon;timestamp;P1;durP1;ratioP1;P2;durP2;ratioP2
8435;SDS011;4255;48.730;9.156;2024-03-29T00:01:43;2.83;;;2.40;;
8435;SDS011;4255;48.730;9.156;2024-03-29T00:04:08;2.83;;;2.50;;
8435;SDS011;4255;48.730;9.156;2024-03-29T00:06:34;2.87;;;2.67;;
8435;SDS011;4255;48.730;9.156;2024-03-29T00:09:00;3.50;;;2.27;;
8435;SDS011;4255;48.730;9.156;2024-03-29T00:11:26;3.22;;;2.20;;
8435;SDS011;4255;48.730;9.156;2024-03-29T00:13:52;3.20;;;2.90;;
8435;SDS011;4255;48.730;9.156;2024-03-29T00:16:18;2.50;;;2.30;;
8435;SDS011;4255;48.730;9.156;2024-03-29T00:18:44;2.60;;;2.50;;
8435;SDS011;4255;48.730;9.156;2024-03-29T00:21:09;10.80;;;2.67;;
8435;SDS011;4255;48.730;9.156;2024-03-29T00:23:35;2.60;;;2.40;;
8435;SDS011;4255;48.730;9.156;2024-03-29T00:26:00;6.10;;;2.90;;
8435;SDS011;4255;48.730;9.156;2024-03-29T00:28:26;2.70;;;2.50;;
8435;SDS011;4255;48.730;9.156;2024-03-29T00:30:52;2.67;;;2.47;;
8435;SDS011;4255;48.730;9.156;2024-03-29T00:33:17;3.57;;;2.70;;
8435;SDS011;4255;48.730;9.156;2024-03-29T00:35:43;2.23;;;2.13;;
8435;SDS011;4255;48.730;9.156;2024-03-29T00:38:08;2.70;;;2.50;;
8435;SDS011;4255;48.730;9.156;2024-03-29T00:40:35;6.70;;;2.60;;
8435;SDS011;4255;48.730;9.156;2024-03-29T00:43:01;2.65;;;2.45;;
8435;SDS011;4255;48.730;9.156;2024-03-29T00:45:27;2.57;;;2.43;;
8435;SDS011;4255;48.730;9.156;2024-03-29T00:47:53;2.45;;;2.25;;
8435;SDS011;4255;48.730;9.156;2024-03-29T00:50:19;6.67;;;2.87;;
8435;SDS011;4255;48.730;9.156;2024-03-29T00:52:45;2.40;;;2.20;;
8435;SDS011;4255;48.730;9.156;2024-03-29T00:55:13;2.28;;;2.17;;
8435;SDS011;4255;48.730;9.156;2024-03-29T00:57:38;2.80;;;2.60;;
8435;SDS011;4255;48.730;9.156;2024-03-29T01:00:04;3.00;;;2.20;;
8435;SDS011;4255;48.730;9.156;2024-03-29T01:02:30;2.67;;;2.47;;
8435;SDS011;4255;48.730;9.156;2024-03-29T01:04:56;2.70;;;2.47;;
8435;SDS011;4255;48.730;9.156;2024-03-29T01:07:22;2.27;;;2.17;;
8435;SDS011;4255;48.730;9.156;2024-03-29T01:09:47;3.50;;;2.90;;
8435;SDS011;4255;48.730;9.156;2024-03-29T01:12:13;2.97;;;2.67;;
8435;SDS011;4255;48.730;9.156;2024-03-29T01:14:39;2.33;;;2.10;;
8435;SDS011;4255;48.730;9.156;2024-03-29T01:17:04;2.53;;;2.33;;
8435;SDS011;4255;48.730;9.156;2024-03-29T01:19:31;2.05;;;1.95;;
8435;SDS011;4255;48.730;9.156;2024-03-29T01:21:57;2.60;;;2.10;;
8435;SDS011;4255;48.730;9.156;2024-03-29T01:24:22;2.37;;;2.17;;
8435;SDS011;4255;48.730;9.156;2024-03-29T01:26:49;2.70;;;2.50;;
8435;SDS011;4255;48.730;9.156;2024-03-29T01:29:14;2.00;;;1.90;;
8435;SDS011;4255;48.730;9.156;2024-03-29T01:31:40;2.30;;;2.20;;
8435;SDS011;4255;48.730;9.156;2024-03-29T01:34:06;3.17;;;1.90;;
8435;SDS011;4255;48.730;9.156;2024-03-29T01:36:31;8.00;;;2.07;;
8435;SDS011;4255;48.730;9.156;2024-03-29T01:38:57;3.40;;;2.10;;
8435;SDS011;4255;48.730;9.156;2024-03-29T01:41:23;2.20;;;2.10;;
8435;SDS011;4255;48.730;9.156;2024-03-29T01:43:51;2.10;;;2.00;;
8435;SDS011;4255;48.730;9.156;2024-03-29T01:46:18;1.90;;;1.70;;
8435;SDS011;4255;48.730;9.156;2024-03-29T01:48:45;1.80;;;1.70;;
8435;SDS011;4255;48.730;9.156;2024-03-29T01:51:11;2.72;;;2.10;;
8435;SDS011;4255;48.730;9.156;2024-03-29T01:53:49;2.80;;;2.10;;
8435;SDS011;4255;48.730;9.156;2024-03-29T01:56:18;4.30;;;2.22;;
8435;SDS011;4255;48.730;9.156;2024-03-29T01:58:46;2.80;;;2.10;;
8435;SDS011;4255;48.730;9.156;2024-03-29T02:01:18;2.20;;;2.10;;
8435;SDS011;4255;48.730;9.156;2024-03-29T02:03:44;2.50;;;1.90;;
8435;SDS011;4255;48.730;9.156;2024-03-29T02:06:11;2.55;;;1.95;;
8435;SDS011;4255;48.730;9.156;2024-03-29T02:08:38;2.55;;;2.35;;
8435;SDS011;4255;48.730;9.156;2024-03-29T02:11:04;1.80;;;1.70;;
8435;SDS011;4255;48.730;9.156;2024-03-29T02:13:31;1.58;;;1.48;;
8435;SDS011;4255;48.730;9.156;2024-03-29T02:15:57;3.60;;;2.07;;
8435;SDS011;4255;48.730;9.156;2024-03-29T02:18:22;2.20;;;1.70;;
8435;SDS011;4255;48.730;9.156;2024-03-29T02:20:48;1.80;;;1.70;;
8435;SDS011;4255;48.730;9.156;2024-03-29T02:23:16;1.47;;;1.37;;
8435;SDS011;4255;48.730;9.156;2024-03-29T02:25:45;1.75;;;1.65;;
8435;SDS011;4255;48.730;9.156;2024-03-29T02:28:11;1.40;;;1.40;;
8435;SDS011;4255;48.730;9.156;2024-03-29T02:30:38;1.90;;;1.80;;
8435;SDS011;4255;48.730;9.156;2024-03-29T02:33:03;1.70;;;1.60;;
8435;SDS011;4255;48.730;9.156;2024-03-29T02:35:29;2.20;;;1.70;;
8435;SDS011;4255;48.730;9.156;2024-03-29T02:37:55;1.60;;;1.50;;
8435;SDS011;4255;48.730;9.156;2024-03-29T02:40:21;2.03;;;1.93;;
8435;SDS011;4255;48.730;9.156;2024-03-29T02:42:47;1.30;;;1.30;;
8435;SDS011;4255;48.730;9.156;2024-03-29T02:45:14;1.75;;;1.65;;
8435;SDS011;4255;48.730;9.156;2024-03-29T02:47:40;1.83;;;1.73;;
8435;SDS011;4255;48.730;9.156;2024-03-29T02:50:08;1.90;;;1.80;;
8435;SDS011;4255;48.730;9.156;2024-03-29T02:52:34;2.00;;;1.90;;
8435;SDS011;4255;48.730;9.156;2024-03-29T02:55:00;1.93;;;1.83;;
8435;SDS011;4255;48.730;9.156;2024-03-29T02:57:26;1.67;;;1.57;;
8435;SDS011;4255;48.730;9.156;2024-03-29T02:59:51;1.43;;;1.33;;
8435;SDS011;4255;48.730;9.156;2024-03-29T03:02:17;1.70;;;1.60;;
8435;SDS011;4255;48.730;9.156;2024-03-29T03:04:42;2.40;;;2.30;;
8435;SDS011;4255;48.730;9.156;2024-03-29T03:07:08;1.70;;;1.60;;
8435;SDS011;4255;48.730;9.156;2024-03-29T03:09:53;2.08;;;1.98;;
8435;SDS011;4255;48.730;9.156;2024-03-29T03:12:37;1.70;;;1.58;;
8435;SDS011;4255;48.730;9.156;2024-03-29T03:15:03;1.60;;;1.50;;
8435;SDS011;4255;48.730;9.156;2024-03-29T03:17:29;1.80;;;1.70;;
8435;SDS011;4255;48.730;9.156;2024-03-29T03:19:56;2.30;;;1.40;;
8435;SDS011;4255;48.730;9.156;2024-03-29T03:22:21;1.67;;;1.57;;
8435;SDS011;4255;48.730;9.156;2024-03-29T03:24:47;2.00;;;1.90;;
8435;SDS011;4255;48.730;9.156;2024-03-29T03:27:13;1.60;;;1.60;;
8435;SDS011;4255;48.730;9.156;2024-03-29T03:29:39;1.50;;;1.40;;
8435;SDS011;4255;48.730;9.156;2024-03-29T03:32:04;1.90;;;1.53;;
8435;SDS011;4255;48.730;9.156;2024-03-29T03:34:32;1.50;;;1.40;;
8435;SDS011;4255;48.730;9.156;2024-03-29T03:36:57;1.70;;;1.60;;
8435;SDS011;4255;48.730;9.156;2024-03-29T03:39:23;1.63;;;1.53;;
8435;SDS011;4255;48.730;9.156;2024-03-29T03:41:48;1.73;;;1.63;;
8435;SDS011;4255;48.730;9.156;2024-03-29T03:44:15;1.42;;;1.33;;
8435;SDS011;4255;48.730;9.156;2024-03-29T03:46:41;1.97;;;1.80;;
8435;SDS011;4255;48.730;9.156;2024-03-29T03:49:06;2.60;;;1.60;;
8435;SDS011;4255;48.730;9.156;2024-03-29T03:51:32;2.60;;;1.53;;
8435;SDS011;4255;48.730;9.156;2024-03-29T03:53:57;1.70;;;1.60;;
8435;SDS011;4255;48.730;9.156;2024-03-29T03:56:23;2.00;;;1.80;;
8435;SDS011;4255;48.730;9.156;2024-03-29T03:58:49;2.07;;;1.37;;
8435;SDS011;4255;48.730;9.156;2024-03-29T04:01:14;6.80;;;1.50;;
8435;SDS011;4255;48.730;9.156;2024-03-29T04:03:40;1.87;;;1.77;;
8435;SDS011;4255;48.730;9.156;2024-03-29T04:06:06;2.60;;;1.60;;
8435;SDS011;4255;48.730;9.156;2024-03-29T04:08:32;1.80;;;1.70;;
8435;SDS011;4255;48.730;9.156;2024-03-29T04:10:57;1.60;;;1.50;;
8435;SDS011;4255;48.730;9.156;2024-03-29T04:13:26;1.45;;;1.35;;
8435;SDS011;4255;48.730;9.156;2024-03-29T04:15:52;1.87;;;1.77;;
8435;SDS011;4255;48.730;9.156;2024-03-29T04:18:18;1.67;;;1.57;;
8435;SDS011;4255;48.730;9.156;2024-03-29T04:20:43;1.50;;;1.40;;
8435;SDS011;4255;48.730;9.156;2024-03-29T04:23:09;2.03;;;1.40;;
8435;SDS011;4255;48.730;9.156;2024-03-29T04:25:34;1.40;;;1.40;;
8435;SDS011;4255;48.730;9.156;2024-03-29T04:28:00;1.60;;;1.50;;
8435;SDS011;4255;48.730;9.156;2024-03-29T04:30:25;1.20;;;1.20;;
8435;SDS011;4255;48.730;9.156;2024-03-29T04:32:51;1.27;;;1.27;;
8435;SDS011;4255;48.730;9.156;2024-03-29T04:35:16;1.70;;;1.60;;
8435;SDS011;4255;48.730;9.156;2024-03-29T04:37:42;1.50;;;1.40;;
8435;SDS011;4255;48.730;9.156;2024-03-29T04:40:07;1.50;;;1.30;;
8435;SDS011;4255;48.730;9.156;2024-03-29T04:42:33;1.80;;;1.70;;
8435;SDS011;4255;48.730;9.156;2024-03-29T04:44:59;1.43;;;1.40;;
8435;SDS011;4255;48.730;9.156;2024-03-29T04:47:26;3.20;;;1.50;;
8435;SDS011;4255;48.730;9.156;2024-03-29T04:49:51;2.80;;;1.90;;
8435;SDS011;4255;48.730;9.156;2024-03-29T04:52:17;1.10;;;1.10;;
8435;SDS011;4255;48.730;9.156;2024-03-29T04:54:42;2.80;;;1.67;;
8435;SDS011;4255;48.730;9.156;2024-03-29T04:57:09;1.60;;;1.50;;
8435;SDS011;4255;48.730;9.156;2024-03-29T04:59:34;3.10;;;1.93;;
8435;SDS011;4255;48.730;9.156;2024-03-29T05:02:00;1.70;;;1.60;;
8435;SDS011;4255;48.730;9.156;2024-03-29T05:04:26;1.73;;;1.63;;
8435;SDS011;4255;48.730;9.156;2024-03-29T05:06:55;1.60;;;1.50;;
8435;SDS011;4255;48.730;9.156;2024-03-29T05:09:22;2.20;;;1.70;;
8435;SDS011;4255;48.730;9.156;2024-03-29T05:11:48;1.40;;;1.40;;
8435;SDS011;4255;48.730;9.156;2024-03-29T05:14:17;2.87;;;2.60;;
8435;SDS011;4255;48.730;9.156;2024-03-29T05:16:44;1.90;;;1.80;;
8435;SDS011;4255;48.730;9.156;2024-03-29T05:19:11;1.52;;;1.42;;
8435;SDS011;4255;48.730;9.156;2024-03-29T05:21:38;2.10;;;1.98;;
8435;SDS011;4255;48.730;9.156;2024-03-29T05:24:04;1.60;;;1.50;;
8435;SDS011;4255;48.730;9.156;2024-03-29T05:26:30;1.77;;;1.67;;
8435;SDS011;4255;48.730;9.156;2024-03-29T05:28:56;1.70;;;1.60;;
8435;SDS011;4255;48.730;9.156;2024-03-29T05:31:23;1.60;;;1.50;;
8435;SDS011;4255;48.730;9.156;2024-03-29T05:33:49;2.45;;;2.10;;
8435;SDS011;4255;48.730;9.156;2024-03-29T05:36:15;1.73;;;1.63;;
8435;SDS011;4255;48.730;9.156;2024-03-29T05:38:40;2.00;;;1.90;;
8435;SDS011;4255;48.730;9.156;2024-03-29T05:41:06;2.70;;;1.77;;
8435;SDS011;4255;48.730;9.156;2024-03-29T05:43:32;1.98;;;1.88;;
8435;SDS011;4255;48.730;9.156;2024-03-29T05:45:58;1.90;;;1.80;;
8435;SDS011;4255;48.730;9.156;2024-03-29T05:48:26;1.73;;;1.63;;
8435;SDS011;4255;48.730;9.156;2024-03-29T05:50:52;1.87;;;1.77;;
8435;SDS011;4255;48.730;9.156;2024-03-29T05:53:17;1.73;;;1.63;;
8435;SDS011;4255;48.730;9.156;2024-03-29T05:55:43;1.80;;;1.70;;
8435;SDS011;4255;48.730;9.156;2024-03-29T05:58:08;1.97;;;1.87;;
8435;SDS011;4255;48.730;9.156;2024-03-29T06:00:34;1.70;;;1.60;;
8435;SDS011;4255;48.730;9.156;2024-03-29T06:03:00;2.10;;;1.60;;
8435;SDS011;4255;48.730;9.156;2024-03-29T06:05:29;1.90;;;1.50;;
8435;SDS011;4255;48.730;9.156;2024-03-29T06:07:55;3.23;;;1.60;;
8435;SDS011;4255;48.730;9.156;2024-03-29T06:10:20;1.70;;;1.60;;
8435;SDS011;4255;48.730;9.156;2024-03-29T06:12:46;3.23;;;1.90;;
8435;SDS011;4255;48.730;9.156;2024-03-29T06:15:11;1.73;;;1.37;;
8435;SDS011;4255;48.730;9.156;2024-03-29T06:17:56;1.40;;;1.30;;
8435;SDS011;4255;48.730;9.156;2024-03-29T06:20:22;2.67;;;1.55;;
8435;SDS011;4255;48.730;9.156;2024-03-29T06:22:48;1.50;;;1.40;;
8435;SDS011;4255;48.730;9.156;2024-03-29T06:25:14;1.37;;;1.33;;
8435;SDS011;4255;48.730;9.156;2024-03-29T06:27:40;1.38;;;1.27;;
8435;SDS011;4255;48.730;9.156;2024-03-29T06:30:08;1.80;;;1.70;;
8435;SDS011;4255;48.730;9.156;2024-03-29T06:32:34;2.42;;;2.22;;
8435;SDS011;4255;48.730;9.156;2024-03-29T06:35:01;1.60;;;1.40;;
8435;SDS011;4255;48.730;9.156;2024-03-29T06:37:27;2.33;;;1.60;;
8435;SDS011;4255;48.730;9.156;2024-03-29T06:39:54;1.92;;;1.70;;
8435;SDS011;4255;48.730;9.156;2024-03-29T06:42:20;1.60;;;1.50;;
8435;SDS011;4255;48.730;9.156;2024-03-29T06:44:46;1.93;;;1.50;;
8435;SDS011;4255;48.730;9.156;2024-03-29T06:47:11;1.60;;;1.50;;
8435;SDS011;4255;48.730;9.156;2024-03-29T06:49:37;2.40;;;1.40;;
8435;SDS011;4255;48.730;9.156;2024-03-29T06:52:03;1.40;;;1.40;;
8435;SDS011;4255;48.730;9.156;2024-03-29T06:54:29;1.70;;;1.60;;
8435;SDS011;4255;48.730;9.156;2024-03-29T06:56:55;1.83;;;1.73;;
8435;SDS011;4255;48.730;9.156;2024-03-29T06:59:21;1.45;;;1.35;;
8435;SDS011;4255;48.730;9.156;2024-03-29T07:01:47;2.33;;;2.13;;
8435;SDS011;4255;48.730;9.156;2024-03-29T07:04:17;6.20;;;1.45;;
8435;SDS011;4255;48.730;9.156;2024-03-29T07:06:44;1.67;;;1.58;;
8435;SDS011;4255;48.730;9.156;2024-03-29T07:09:12;2.88;;;1.55;;
8435;SDS011;4255;48.730;9.156;2024-03-29T07:11:41;1.30;;;1.30;;
8435;SDS011;4255;48.730;9.156;2024-03-29T07:14:07;1.97;;;1.77;;
8435;SDS011;4255;48.730;9.156;2024-03-29T07:16:33;1.60;;;1.50;;
8435;SDS011;4255;48.730;9.156;2024-03-29T07:18:58;2.03;;;1.93;;
8435;SDS011;4255;48.730;9.156;2024-03-29T07:21:24;1.67;;;1.57;;
8435;SDS011;4255;48.730;9.156;2024-03-29T07:23:50;1.73;;;1.63;;
8435;SDS011;4255;48.730;9.156;2024-03-29T07:26:15;2.60;;;1.90;;
8435;SDS011;4255;48.730;9.156;2024-03-29T07:28:41;1.50;;;1.40;;
8435;SDS011;4255;48.730;9.156;2024-03-29T07:31:07;1.60;;;1.40;;
8435;SDS011;4255;48.730;9.156;2024-03-29T07:33:33;1.60;;;1.50;;
8435;SDS011;4255;48.730;9.156;2024-03-29T07:35:59;1.93;;;1.83;;
8435;SDS011;4255;48.730;9.156;2024-03-29T07:38:25;2.83;;;2.37;;
8435;SDS011;4255;48.730;9.156;2024-03-29T07:40:51;2.30;;;2.10;;
8435;SDS011;4255;48.730;9.156;2024-03-29T07:43:17;3.03;;;2.28;;
8435;SDS011;4255;48.730;9.156;2024-03-29T07:45:44;2.05;;;1.95;;
8435;SDS011;4255;48.730;9.156;2024-03-29T07:48:14;2.35;;;2.15;;
8435;SDS011;4255;48.730;9.156;2024-03-29T07:50:44;2.10;;;2.00;;
8435;SDS011;4255;48.730;9.156;2024-03-29T07:53:10;3.33;;;2.05;;
8435;SDS011;4255;48.730;9.156;2024-03-29T07:55:39;2.20;;;2.10;;
8435;SDS011;4255;48.730;9.156;2024-03-29T07:58:08;2.47;;;2.38;;
8435;SDS011;4255;48.730;9.156;2024-03-29T08:00:35;3.10;;;1.85;;
8435;SDS011;4255;48.730;9.156;2024-03-29T08:03:06;2.20;;;2.10;;
8435;SDS011;4255;48.730;9.156;2024-03-29T08:05:31;2.73;;;2.53;;
8435;SDS011;4255;48.730;9.156;2024-03-29T08:07:58;3.20;;;2.53;;
8435;SDS011;4255;48.730;9.156;2024-03-29T08:10:24;4.97;;;4.20;;
8435;SDS011;4255;48.730;9.156;2024-03-29T08:12:50;5.37;;;3.97;;
8435;SDS011;4255;48.730;9.156;2024-03-29T08:15:15;8.23;;;6.43;;
8435;SDS011;4255;48.730;9.156;2024-03-29T08:17:43;4.10;;;3.75;;
8435;SDS011;4255;48.730;9.156;2024-03-29T08:20:09;3.72;;;3.40;;
8435;SDS011;4255;48.730;9.156;2024-03-29T08:22:35;5.50;;;5.03;;
8435;SDS011;4255;48.730;9.156;2024-03-29T08:25:00;6.30;;;5.70;;
8435;SDS011;4255;48.730;9.156;2024-03-29T08:27:26;5.10;;;4.60;;
8435;SDS011;4255;48.730;9.156;2024-03-29T08:29:52;3.45;;;3.25;;
8435;SDS011;4255;48.730;9.156;2024-03-29T08:32:18;2.80;;;2.70;;
8435;SDS011;4255;48.730;9.156;2024-03-29T08:34:44;2.23;;;2.13;;
8435;SDS011;4255;48.730;9.156;2024-03-29T08:37:10;2.60;;;2.40;;
8435;SDS011;4255;48.730;9.156;2024-03-29T08:39:35;4.60;;;3.00;;
8435;SDS011;4255;48.730;9.156;2024-03-29T08:42:03;3.47;;;2.92;;
8435;SDS011;4255;48.730;9.156;2024-03-29T08:44:33;3.47;;;2.35;;
8435;SDS011;4255;48.730;9.156;2024-03-29T08:46:59;4.30;;;2.90;;
8435;SDS011;4255;48.730;9.156;2024-03-29T08:49:28;4.43;;;3.05;;
8435;SDS011;4255;48.730;9.156;2024-03-29T08:51:54;3.55;;;2.65;;
8435;SDS011;4255;48.730;9.156;2024-03-29T08:54:19;4.70;;;2.80;;
8435;SDS011;4255;48.730;9.156;2024-03-29T08:56:45;4.30;;;2.93;;
8435;SDS011;4255;48.730;9.156;2024-03-29T08:59:11;7.50;;;2.60;;
8435;SDS011;4255;48.730;9.156;2024-03-29T09:01:42;2.65;;;2.45;;
8435;SDS011;4255;48.730;9.156;2024-03-29T09:04:09;2.20;;;2.10;;
8435;SDS011;4255;48.730;9.156;2024-03-29T09:06:36;2.75;;;2.40;;
8435;SDS011;4255;48.730;9.156;2024-03-29T09:09:03;2.38;;;2.17;;
8435;SDS011;4255;48.730;9.156;2024-03-29T09:11:32;2.97;;;2.25;;
8435;SDS011;4255;48.730;9.156;2024-03-29T09:13:58;2.85;;;2.33;;
8435;SDS011;4255;48.730;9.156;2024-03-29T09:16:26;2.13;;;2.03;;
8435;SDS011;4255;48.730;9.156;2024-03-29T09:18:54;2.45;;;2.30;;
8435;SDS011;4255;48.730;9.156;2024-03-29T09:21:19;2.30;;;2.20;;
8435;SDS011;4255;48.730;9.156;2024-03-29T09:23:45;2.73;;;2.10;;
8435;SDS011;4255;48.730;9.156;2024-03-29T09:26:11;2.15;;;2.05;;
8435;SDS011;4255;48.730;9.156;2024-03-29T09:28:39;2.50;;;2.33;;
8435;SDS011;4255;48.730;9.156;2024-03-29T09:31:05;4.13;;;2.50;;
8435;SDS011;4255;48.730;9.156;2024-03-29T09:33:30;3.00;;;2.37;;
8435;SDS011;4255;48.730;9.156;2024-03-29T09:35:56;3.10;;;2.80;;
8435;SDS011;4255;48.730;9.156;2024-03-29T09:38:23;3.20;;;2.90;;
8435;SDS011;4255;48.730;9.156;2024-03-29T09:40:51;19.10;;;2.92;;
8435;SDS011;4255;48.730;9.156;2024-03-29T09:43:36;2.50;;;2.40;;
8435;SDS011;4255;48.730;9.156;2024-03-29T09:46:04;7.90;;;2.70;;
8435;SDS011;4255;48.730;9.156;2024-03-29T09:48:30;5.00;;;2.63;;
8435;SDS011;4255;48.730;9.156;2024-03-29T09:51:02;4.40;;;2.40;;
8435;SDS011;4255;48.730;9.156;2024-03-29T09:53:29;2.37;;;2.17;;
8435;SDS011;4255;48.730;9.156;2024-03-29T09:55:55;2.87;;;2.57;;
8435;SDS011;4255;48.730;9.156;2024-03-29T09:58:22;2.13;;;1.93;;
8435;SDS011;4255;48.730;9.156;2024-03-29T10:00:49;2.97;;;2.17;;
8435;SDS011;4255;48.730;9.156;2024-03-29T10:03:14;2.00;;;1.90;;
8435;SDS011;4255;48.730;9.156;2024-03-29T10:05:44;2.07;;;1.90;;
8435;SDS011;4255;48.730;9.156;2024-03-29T10:08:11;2.80;;;2.20;;
8435;SDS011;4255;48.730;9.156;2024-03-29T10:10:39;3.40;;;2.30;;
8435;SDS011;4255;48.730;9.156;2024-03-29T10:13:06;4.80;;;2.13;;
8435;SDS011;4255;48.730;9.156;2024-03-29T10:15:31;3.73;;;2.57;;
8435;SDS011;4255;48.730;9.156;2024-03-29T10:18:02;3.40;;;2.47;;
8435;SDS011;4255;48.730;9.156;2024-03-29T10:20:28;4.00;;;2.57;;
8435;SDS011;4255;48.730;9.156;2024-03-29T10:22:53;2.60;;;2.40;;
8435;SDS011;4255;48.730;9.156;2024-03-29T10:25:20;3.07;;;2.20;;
8435;SDS011;4255;48.730;9.156;2024-03-29T10:27:46;5.83;;;2.70;;
8435;SDS011;4255;48.730;9.156;2024-03-29T10:30:12;4.13;;;2.30;;
8435;SDS011;4255;48.730;9.156;2024-03-29T10:32:42;2.57;;;2.37;;
8435;SDS011;4255;48.730;9.156;2024-03-29T10:35:08;8.00;;;2.20;;
8435;SDS011;4255;48.730;9.156;2024-03-29T10:37:35;2.57;;;2.40;;
8435;SDS011;4255;48.730;9.156;2024-03-29T10:40:06;2.30;;;2.20;;
8435;SDS011;4255;48.730;9.156;2024-03-29T10:42:38;2.40;;;2.20;;
8435;SDS011;4255;48.730;9.156;2024-03-29T10:45:08;2.40;;;2.30;;
8435;SDS011;4255;48.730;9.156;2024-03-29T10:47:34;2.73;;;2.53;;
8435;SDS011;4255;48.730;9.156;2024-03-29T10:49:59;3.47;;;2.70;;
8435;SDS011;4255;48.730;9.156;2024-03-29T10:52:25;2.80;;;2.60;;
8435;SDS011;4255;48.730;9.156;2024-03-29T10:54:51;3.40;;;2.87;;
8435;SDS011;4255;48.730;9.156;2024-03-29T10:57:21;3.13;;;2.93;;
8435;SDS011;4255;48.730;9.156;2024-03-29T10:59:52;3.50;;;3.20;;
8435;SDS011;4255;48.730;9.156;2024-03-29T11:05:22;2.97;;;2.77;;
8435;SDS011;4255;48.730;9.156;2024-03-29T11:07:50;6.03;;;2.77;;
8435;SDS011;4255;48.730;9.156;2024-03-29T11:10:22;2.67;;;2.47;;
8435;SDS011;4255;48.730;9.156;2024-03-29T11:13:06;4.50;;;2.57;;
8435;SDS011;4255;48.730;9.156;2024-03-29T11:15:40;2.83;;;2.50;;
8435;SDS011;4255;48.730;9.156;2024-03-29T11:18:07;3.27;;;2.23;;
8435;SDS011;4255;48.730;9.156;2024-03-29T11:20:34;4.80;;;2.23;;
8435;SDS011;4255;48.730;9.156;2024-03-29T11:23:08;2.37;;;2.17;;
8435;SDS011;4255;48.730;9.156;2024-03-29T11:25:39;2.80;;;2.60;;
8435;SDS011;4255;48.730;9.156;2024-03-29T11:28:08;2.40;;;2.20;;
8435;SDS011;4255;48.730;9.156;2024-03-29T11:33:29;2.27;;;2.07;;
8435;SDS011;4255;48.730;9.156;2024-03-29T11:35:55;2.70;;;2.23;;
8435;SDS011;4255;48.730;9.156;2024-03-29T11:38:21;2.10;;;2.00;;
8435;SDS011;4255;48.730;9.156;2024-03-29T11:43:48;2.47;;;2.27;;
8435;SDS011;4255;48.730;9.156;2024-03-29T11:46:17;4.20;;;2.10;;
8435;SDS011;4255;48.730;9.156;2024-03-29T11:48:43;2.40;;;2.20;;
8435;SDS011;4255;48.730;9.156;2024-03-29T11:51:17;2.67;;;2.03;;
8435;SDS011;4255;48.730;9.156;2024-03-29T11:53:47;2.40;;;1.53;;
8435;SDS011;4255;48.730;9.156;2024-03-29T11:56:13;2.73;;;2.00;;
8435;SDS011;4255;48.730;9.156;2024-03-29T11:58:39;1.70;;;1.60;;
8435;SDS011;4255;48.730;9.156;2024-03-29T12:01:05;2.20;;;2.00;;
8435;SDS011;4255;48.730;9.156;2024-03-29T12:03:37;2.30;;;2.10;;
8435;SDS011;4255;48.730;9.156;2024-03-29T12:06:03;1.80;;;1.70;;
8435;SDS011;4255;48.730;9.156;2024-03-29T12:08:30;2.10;;;1.90;;
8435;SDS011;4255;48.730;9.156;2024-03-29T12:10:58;2.60;;;2.37;;
8435;SDS011;4255;48.730;9.156;2024-03-29T12:13:25;2.00;;;1.90;;
8435;SDS011;4255;48.730;9.156;2024-03-29T12:15:51;2.93;;;1.70;;
8435;SDS011;4255;48.730;9.156;2024-03-29T12:18:18;2.00;;;1.90;;
8435;SDS011;4255;48.730;9.156;2024-03-29T12:20:47;3.23;;;2.00;;
8435;SDS011;4255;48.730;9.156;2024-03-29T12:23:17;2.10;;;2.00;;
8435;SDS011;4255;48.730;9.156;2024-03-29T12:25:44;2.10;;;1.70;;
8435;SDS011;4255;48.730;9.156;2024-03-29T12:28:10;2.40;;;2.30;;
8435;SDS011;4255;48.730;9.156;2024-03-29T12:30:37;1.93;;;1.83;;
8435;SDS011;4255;48.730;9.156;2024-03-29T12:33:16;2.20;;;1.80;;
8435;SDS011;4255;48.730;9.156;2024-03-29T12:35:45;2.03;;;1.93;;
8435;SDS011;4255;48.730;9.156;2024-03-29T12:38:18;3.03;;;2.67;;
8435;SDS011;4255;48.730;9.156;2024-03-29T12:40:45;2.27;;;1.80;;
8435;SDS011;4255;48.730;9.156;2024-03-29T12:43:15;3.20;;;1.80;;
8435;SDS011;4255;48.730;9.156;2024-03-29T12:45:45;1.90;;;1.80;;
8435;SDS011;4255;48.730;9.156;2024-03-29T12:48:20;1.80;;;1.70;;
8435;SDS011;4255;48.730;9.156;2024-03-29T12:50:49;2.30;;;2.10;;
8435;SDS011;4255;48.730;9.156;2024-03-29T12:53:16;3.53;;;2.60;;
8435;SDS011;4255;48.730;9.156;2024-03-29T12:55:42;2.80;;;2.33;;
8435;SDS011;4255;48.730;9.156;2024-03-29T12:58:11;2.90;;;2.70;;
8435;SDS011;4255;48.730;9.156;2024-03-29T13:00:41;3.30;;;2.93;;
8435;SDS011;4255;48.730;9.156;2024-03-29T13:03:07;2.93;;;2.60;;
8435;SDS011;4255;48.730;9.156;2024-03-29T13:05:36;3.50;;;3.20;;
8435;SDS011;4255;48.730;9.156;2024-03-29T13:08:10;6.30;;;3.20;;
8435;SDS011;4255;48.730;9.156;2024-03-29T13:10:37;3.00;;;2.70;;
8435;SDS011;4255;48.730;9.156;2024-03-29T13:13:04;3.67;;;2.53;;
8435;SDS011;4255;48.730;9.156;2024-03-29T13:15:31;3.33;;;2.93;;
8435;SDS011;4255;48.730;9.156;2024-03-29T13:17:58;3.87;;;2.73;;
8435;SDS011;4255;48.730;9.156;2024-03-29T13:20:25;3.70;;;3.00;;
8435;SDS011;4255;48.730;9.156;2024-03-29T13:22:51;2.80;;;2.40;;
8435;SDS011;4255;48.730;9.156;2024-03-29T13:25:19;3.00;;;2.00;;
8435;SDS011;4255;48.730;9.156;2024-03-29T13:27:46;2.00;;;1.90;;
8435;SDS011;4255;48.730;9.156;2024-03-29T13:30:14;2.27;;;2.10;;
8435;SDS011;4255;48.730;9.156;2024-03-29T13:32:41;3.33;;;2.30;;
8435;SDS011;4255;48.730;9.156;2024-03-29T13:35:08;1.80;;;1.70;;
8435;SDS011;4255;48.730;9.156;2024-03-29T13:37:41;2.50;;;2.30;;
8435;SDS011;4255;48.730;9.156;2024-03-29T13:40:08;2.10;;;2.00;;
8435;SDS011;4255;48.730;9.156;2024-03-29T13:42:38;3.10;;;2.43;;
8435;SDS011;4255;48.730;9.156;2024-03-29T13:45:04;2.40;;;2.10;;
8435;SDS011;4255;48.730;9.156;2024-03-29T13:47:33;2.40;;;2.20;;
8435;SDS011;4255;48.730;9.156;2024-03-29T13:50:00;3.27;;;1.90;;
8435;SDS011;4255;48.730;9.156;2024-03-29T13:52:25;2.50;;;2.10;;
8435;SDS011;4255;48.730;9.156;2024-03-29T13:54:55;1.70;;;1.60;;
8435;SDS011;4255;48.730;9.156;2024-03-29T13:57:20;2.43;;;2.23;;
8435;SDS011;4255;48.730;9.156;2024-03-29T13:59:46;1.80;;;1.70;;
8435;SDS011;4255;48.730;9.156;2024-03-29T14:02:12;2.13;;;2.03;;
8435;SDS011;4255;48.730;9.156;2024-03-29T14:04:44;1.70;;;1.60;;
8435;SDS011;4255;48.730;9.156;2024-03-29T14:07:11;3.57;;;2.10;;
8435;SDS011;4255;48.730;9.156;2024-03-29T14:09:38;1.90;;;1.47;;
8435;SDS011;4255;48.730;9.156;2024-03-29T14:12:08;1.97;;;1.87;;
8435;SDS011;4255;48.730;9.156;2024-03-29T14:14:34;1.80;;;1.70;;
8435;SDS011;4255;48.730;9.156;2024-03-29T14:17:00;1.90;;;1.67;;
8435;SDS011;4255;48.730;9.156;2024-03-29T14:19:31;2.07;;;1.97;;
8435;SDS011;4255;48.730;9.156;2024-03-29T14:21:58;1.90;;;1.80;;
8435;SDS011;4255;48.730;9.156;2024-03-29T14:24:27;1.90;;;1.80;;
8435;SDS011;4255;48.730;9.156;2024-03-29T14:26:55;2.07;;;1.87;;
8435;SDS011;4255;48.730;9.156;2024-03-29T14:29:21;2.17;;;2.00;;
8435;SDS011;4255;48.730;9.156;2024-03-29T14:31:47;2.37;;;2.03;;
8435;SDS011;4255;48.730;9.156;2024-03-29T14:34:13;2.10;;;2.00;;
8435;SDS011;4255;48.730;9.156;2024-03-29T14:36:39;2.47;;;1.87;;
8435;SDS011;4255;48.730;9.156;2024-03-29T14:39:05;3.60;;;3.10;;
8435;SDS011;4255;48.730;9.156;2024-03-29T14:41:31;2.97;;;2.67;;
8435;SDS011;4255;48.730;9.156;2024-03-29T14:43:56;5.30;;;4.37;;
8435;SDS011;4255;48.730;9.156;2024-03-29T14:46:23;6.93;;;5.20;;
8435;SDS011;4255;48.730;9.156;2024-03-29T14:48:48;2.13;;;2.03;;
8435;SDS011;4255;48.730;9.156;2024-03-29T14:51:15;2.27;;;2.13;;
8435;SDS011;4255;48.730;9.156;2024-03-29T14:53:41;2.00;;;1.90;;
8435;SDS011;4255;48.730;9.156;2024-03-29T14:56:12;1.93;;;1.80;;
8435;SDS011;4255;48.730;9.156;2024-03-29T14:58:38;3.57;;;3.30;;
8435;SDS011;4255;48.730;9.156;2024-03-29T15:01:05;2.63;;;2.33;;
8435;SDS011;4255;48.730;9.156;2024-03-29T15:03:30;1.73;;;1.63;;
8435;SDS011;4255;48.730;9.156;2024-03-29T15:05:56;5.13;;;3.40;;
8435;SDS011;4255;48.730;9.156;2024-03-29T15:08:21;2.60;;;2.40;;
8435;SDS011;4255;48.730;9.156;2024-03-29T15:10:55;3.17;;;2.63;;
8435;SDS011;4255;48.730;9.156;2024-03-29T15:13:32;2.10;;;2.00;;
8435;SDS011;4255;48.730;9.156;2024-03-29T15:15:58;4.20;;;2.80;;
8435;SDS011;4255;48.730;9.156;2024-03-29T15:18:24;2.87;;;2.67;;
8435;SDS011;4255;48.730;9.156;2024-03-29T15:20:56;2.83;;;1.90;;
8435;SDS011;4255;48.730;9.156;2024-03-29T15:23:23;2.20;;;2.10;;